createdAt,value
2017-12-23T00:00:19.763Z,45.50
2017-12-23T00:01:19.514Z,44.10
2017-12-23T00:02:20.056Z,43.70
2017-12-23T00:03:20.534Z,43.10
2017-12-23T00:04:20.068Z,43.90
2017-12-23T00:05:20.608Z,42.80
2017-12-23T00:06:19.890Z,43.30
2017-12-23T00:07:19.740Z,43.30
2017-12-23T00:08:20.813Z,45.80
2017-12-23T00:09:19.911Z,46.90
2017-12-23T00:10:19.988Z,47.80
2017-12-23T00:11:21.163Z,47.40
2017-12-23T00:12:19.666Z,46.70
2017-12-23T00:13:20.135Z,48.40
2017-12-23T00:14:20.496Z,48.80
2017-12-23T00:15:19.610Z,49.60
2017-12-23T00:16:19.878Z,50.50
2017-12-23T00:17:20.742Z,50.80
2017-12-23T00:18:19.875Z,50.30
2017-12-23T00:19:20.320Z,51.40
2017-12-23T00:20:41.599Z,53.80
2017-12-23T00:21:41.901Z,52.90
2017-12-23T00:22:42.638Z,52.10
2017-12-23T00:23:42.043Z,52.90
2017-12-23T00:24:42.877Z,54.10
2017-12-23T00:25:41.954Z,53.00
2017-12-23T00:26:41.714Z,52.10
2017-12-23T00:27:42.381Z,52.40
2017-12-23T00:28:41.650Z,54.10
2017-12-23T00:29:41.994Z,52.00
2017-12-23T00:30:42.455Z,51.40
2017-12-23T00:31:41.806Z,51.50
2017-12-23T00:32:41.599Z,48.50
2017-12-23T00:33:42.449Z,50.70
2017-12-23T00:34:41.952Z,53.10
2017-12-23T00:35:42.256Z,53.50
2017-12-23T00:36:40.971Z,50.30
2017-12-23T00:37:42.466Z,51.20
2017-12-23T00:38:42.378Z,51.90
2017-12-23T00:39:41.087Z,50.60
2017-12-23T00:40:41.786Z,47.20
2017-12-23T00:41:42.177Z,49.90
2017-12-23T00:43:04.780Z,48.70
2017-12-23T00:44:05.464Z,48.60
2017-12-23T00:45:04.790Z,46.10
2017-12-23T00:46:04.785Z,49.20
2017-12-23T00:47:05.212Z,48.30
2017-12-23T00:48:05.709Z,49.50
2017-12-23T00:49:05.523Z,47.00
2017-12-23T00:50:04.697Z,49.40
2017-12-23T00:51:05.132Z,48.80
2017-12-23T00:52:05.544Z,47.60
2017-12-23T00:53:04.998Z,47.10
2017-12-23T00:54:05.454Z,46.80
2017-12-23T00:55:04.362Z,47.10
2017-12-23T00:56:04.790Z,47.90
2017-12-23T00:57:05.135Z,48.60
2017-12-23T00:58:04.839Z,50.10
2017-12-23T00:59:04.743Z,51.50
2017-12-23T01:00:04.936Z,50.20
2017-12-23T01:01:05.328Z,52.30
2017-12-23T01:02:04.119Z,51.00
2017-12-23T01:03:05.595Z,50.50
2017-12-23T01:04:05.000Z,52.20
2017-12-23T01:05:05.810Z,49.90
2017-12-23T01:06:05.280Z,53.60
2017-12-23T01:07:05.682Z,51.90
2017-12-23T01:08:05.049Z,50.40
2017-12-23T01:09:04.813Z,51.30
2017-12-23T01:10:04.935Z,54.00
2017-12-23T01:11:27.884Z,55.10
2017-12-23T01:12:27.598Z,53.00
2017-12-23T01:13:27.477Z,54.40
2017-12-23T01:14:27.546Z,53.80
2017-12-23T01:15:27.438Z,55.90
2017-12-23T01:16:28.111Z,54.30
2017-12-23T01:17:28.192Z,54.40
2017-12-23T01:18:28.423Z,55.80
2017-12-23T01:19:27.456Z,56.50
2017-12-23T01:20:27.781Z,56.20
2017-12-23T01:21:28.587Z,58.80
2017-12-23T01:22:28.129Z,55.90
2017-12-23T01:23:28.327Z,55.20
2017-12-23T01:24:27.877Z,57.50
2017-12-23T01:25:27.469Z,56.30
2017-12-23T01:26:27.150Z,58.00
2017-12-23T01:27:28.979Z,57.90
2017-12-23T01:28:28.439Z,56.90
2017-12-23T01:29:27.492Z,60.40
2017-12-23T01:30:27.654Z,57.70
2017-12-23T01:31:27.807Z,58.10
2017-12-23T01:32:27.884Z,58.00
2017-12-23T01:33:28.437Z,60.90
2017-12-23T01:34:27.150Z,58.80
2017-12-23T01:35:27.749Z,62.00
2017-12-23T01:36:27.491Z,59.80
2017-12-23T01:37:28.724Z,60.00
2017-12-23T01:38:28.072Z,59.90
2017-12-23T01:39:28.104Z,59.60
2017-12-23T01:40:28.426Z,63.00
2017-12-23T01:41:27.903Z,64.90
2017-12-23T01:42:28.515Z,65.90
2017-12-23T01:43:27.310Z,68.50
2017-12-23T01:44:50.837Z,66.00
2017-12-23T01:45:52.167Z,65.50
2017-12-23T01:46:50.824Z,61.50
2017-12-23T01:47:51.202Z,65.90
2017-12-23T01:48:51.642Z,67.30
2017-12-23T01:49:52.982Z,61.20
2017-12-23T01:50:51.340Z,64.60
2017-12-23T01:51:51.670Z,63.70
2017-12-23T01:53:13.064Z,66.60
2017-12-23T01:54:12.770Z,62.70
2017-12-23T01:55:14.663Z,62.80
2017-12-23T01:56:13.568Z,65.60
2017-12-23T01:57:14.057Z,65.00
2017-12-23T01:58:13.440Z,64.10
2017-12-23T01:59:13.773Z,62.30
2017-12-23T02:00:13.863Z,58.60
2017-12-23T02:01:14.492Z,60.70
2017-12-23T02:02:58.090Z,63.50
2017-12-23T02:03:58.747Z,61.70
2017-12-23T02:04:59.144Z,66.90
2017-12-23T02:05:59.078Z,62.90
2017-12-23T02:06:59.277Z,64.00
2017-12-23T02:07:59.272Z,64.90
2017-12-23T02:08:59.100Z,60.60
2017-12-23T02:09:59.466Z,64.90
2017-12-23T02:10:59.732Z,62.80
2017-12-23T02:11:58.984Z,62.20
2017-12-23T02:12:59.644Z,63.00
2017-12-23T02:13:59.088Z,61.50
2017-12-23T02:14:59.048Z,62.70
2017-12-23T02:15:58.828Z,62.80
2017-12-23T02:16:59.158Z,64.50
2017-12-23T02:17:59.763Z,64.50
2017-12-23T02:18:58.535Z,66.70
2017-12-23T02:19:58.428Z,68.50
2017-12-23T02:20:58.249Z,67.40
2017-12-23T02:21:59.633Z,67.50
2017-12-23T02:22:59.227Z,64.40
2017-12-23T02:24:00.111Z,65.30
2017-12-23T02:24:59.587Z,69.60
2017-12-23T02:25:58.868Z,59.70
2017-12-23T02:26:59.086Z,65.30
2017-12-23T02:27:58.933Z,64.40
2017-12-23T02:29:20.675Z,63.30
2017-12-23T02:30:21.156Z,63.90
2017-12-23T02:31:21.326Z,62.10
2017-12-23T02:32:20.982Z,62.90
2017-12-23T02:33:21.400Z,65.30
2017-12-23T02:34:44.316Z,64.80
2017-12-23T02:35:44.178Z,65.30
2017-12-23T02:36:44.752Z,61.30
2017-12-23T02:37:45.684Z,64.20
2017-12-23T02:38:44.952Z,65.80
2017-12-23T02:39:44.258Z,64.40
2017-12-23T02:40:44.014Z,66.50
2017-12-23T02:41:44.043Z,69.10
2017-12-23T02:42:44.513Z,64.30
2017-12-23T02:43:44.466Z,63.00
2017-12-23T02:44:45.379Z,63.60
2017-12-23T02:45:44.371Z,58.50
2017-12-23T02:46:44.753Z,62.70
2017-12-23T02:47:45.272Z,59.20
2017-12-23T02:48:44.303Z,55.90
2017-12-23T02:49:44.471Z,62.10
2017-12-23T02:50:45.019Z,59.80
2017-12-23T02:51:43.963Z,61.20
2017-12-23T02:52:43.857Z,61.60
2017-12-23T02:53:44.788Z,62.60
2017-12-23T02:54:45.294Z,62.20
2017-12-23T02:55:43.983Z,63.20
2017-12-23T02:56:45.300Z,59.20
2017-12-23T02:57:44.214Z,60.60
2017-12-23T02:58:44.088Z,59.10
2017-12-23T02:59:44.597Z,58.50
2017-12-23T03:00:44.844Z,62.80
2017-12-23T03:01:45.322Z,58.90
2017-12-23T03:02:44.012Z,60.40
2017-12-23T03:03:44.508Z,60.70
2017-12-23T03:04:44.832Z,60.00
2017-12-23T03:05:45.792Z,55.60
2017-12-23T03:06:45.286Z,53.00
2017-12-23T03:07:44.262Z,53.40
2017-12-23T03:08:44.256Z,54.30
2017-12-23T03:09:43.946Z,56.50
2017-12-23T03:10:44.411Z,54.30
2017-12-23T03:11:45.224Z,55.90
2017-12-23T03:12:44.671Z,57.10
2017-12-23T03:13:44.566Z,50.00
2017-12-23T03:15:08.475Z,50.10
2017-12-23T03:16:09.167Z,49.90
2017-12-23T03:17:09.224Z,43.20
2017-12-23T03:18:09.638Z,41.60
2017-12-23T03:19:10.012Z,43.80
2017-12-23T03:20:08.638Z,43.90
2017-12-23T03:21:08.555Z,44.20
2017-12-23T03:22:10.431Z,43.90
2017-12-23T03:23:09.435Z,43.30
2017-12-23T03:24:09.071Z,39.60
2017-12-23T03:25:08.924Z,41.70
2017-12-23T03:26:09.620Z,36.40
2017-12-23T03:27:10.367Z,39.00
2017-12-23T03:28:09.449Z,38.50
2017-12-23T03:29:09.299Z,39.10
2017-12-23T03:30:09.681Z,38.00
2017-12-23T03:31:09.195Z,34.70
2017-12-23T03:32:09.400Z,35.00
2017-12-23T03:33:09.455Z,34.40
2017-12-23T03:34:09.315Z,32.80
2017-12-23T03:35:09.127Z,31.80
2017-12-23T03:36:09.536Z,31.70
2017-12-23T03:37:32.886Z,31.90
2017-12-23T03:38:33.912Z,31.80
2017-12-23T03:39:34.074Z,31.80
2017-12-23T03:40:33.371Z,31.80
2017-12-23T03:41:55.732Z,32.40
2017-12-23T03:42:56.559Z,30.50
2017-12-23T03:43:55.458Z,33.40
2017-12-23T03:44:55.379Z,31.80
2017-12-23T03:45:55.917Z,31.40
2017-12-23T03:46:56.369Z,31.50
2017-12-23T03:47:55.758Z,32.70
2017-12-23T03:48:56.252Z,32.40
2017-12-23T03:49:56.774Z,31.30
2017-12-23T03:50:56.146Z,33.80
2017-12-23T03:51:56.154Z,34.20
2017-12-23T03:52:56.168Z,33.40
2017-12-23T03:53:56.014Z,33.80
2017-12-23T03:54:56.079Z,33.00
2017-12-23T03:55:56.642Z,34.20
2017-12-23T03:56:56.218Z,35.90
2017-12-23T03:57:56.777Z,35.70
2017-12-23T03:58:56.116Z,32.80
2017-12-23T03:59:56.433Z,39.10
2017-12-23T04:00:55.323Z,36.00
2017-12-23T04:01:56.636Z,37.20
2017-12-23T04:02:56.099Z,34.10
2017-12-23T04:03:56.367Z,33.40
2017-12-23T04:04:55.933Z,32.30
2017-12-23T04:05:56.446Z,29.90
2017-12-23T04:06:56.754Z,33.00
2017-12-23T04:07:56.168Z,31.30
2017-12-23T04:08:57.180Z,31.20
2017-12-23T04:09:56.115Z,29.80
2017-12-23T04:10:56.472Z,30.90
2017-12-23T04:11:55.946Z,30.50
2017-12-23T04:12:55.852Z,29.90
2017-12-23T04:13:56.229Z,29.70
2017-12-23T04:14:56.908Z,30.40
2017-12-23T04:15:56.281Z,30.70
2017-12-23T04:16:56.653Z,31.90
2017-12-23T04:17:55.931Z,30.50
2017-12-23T04:18:55.922Z,28.70
2017-12-23T04:19:55.887Z,29.60
2017-12-23T04:20:55.922Z,30.00
2017-12-23T04:21:55.635Z,29.50
2017-12-23T04:22:55.959Z,28.60
2017-12-23T04:23:56.452Z,28.70
2017-12-23T04:24:55.902Z,29.60
2017-12-23T04:25:56.587Z,29.50
2017-12-23T04:26:55.823Z,29.10
2017-12-23T04:27:55.753Z,28.70
2017-12-23T04:28:55.919Z,29.20
2017-12-23T04:29:56.452Z,26.50
2017-12-23T04:30:56.039Z,26.30
2017-12-23T04:31:56.781Z,27.70
2017-12-23T04:32:55.560Z,26.50
2017-12-23T04:33:56.050Z,26.10
2017-12-23T04:34:55.954Z,26.70
2017-12-23T04:35:56.332Z,24.50
2017-12-23T04:36:55.872Z,28.40
2017-12-23T04:37:56.749Z,31.40
2017-12-23T04:38:55.576Z,26.30
2017-12-23T04:39:55.176Z,24.10
2017-12-23T04:40:55.871Z,22.90
2017-12-23T04:41:56.364Z,22.20
2017-12-23T04:42:55.894Z,20.70
2017-12-23T04:43:56.816Z,21.80
2017-12-23T04:44:55.825Z,21.90
2017-12-23T04:45:56.194Z,23.60
2017-12-23T04:46:56.716Z,21.90
2017-12-23T04:47:55.679Z,22.00
2017-12-23T04:48:55.478Z,23.20
2017-12-23T04:49:56.379Z,23.50
2017-12-23T04:50:55.438Z,21.80
2017-12-23T04:51:55.090Z,22.40
2017-12-23T04:52:56.492Z,19.10
2017-12-23T04:53:55.364Z,21.10
2017-12-23T04:54:55.676Z,20.70
2017-12-23T04:55:55.700Z,20.40
2017-12-23T04:56:55.691Z,19.10
2017-12-23T04:57:55.544Z,20.90
2017-12-23T04:58:55.922Z,20.40
2017-12-23T04:59:56.122Z,21.10
2017-12-23T05:00:56.390Z,20.40
2017-12-23T05:01:56.238Z,19.10
2017-12-23T05:02:56.318Z,19.80
2017-12-23T05:03:56.715Z,23.00
2017-12-23T05:04:55.449Z,21.00
2017-12-23T05:05:56.521Z,18.40
2017-12-23T05:06:55.132Z,19.60
2017-12-23T05:07:55.979Z,19.60
2017-12-23T05:08:56.286Z,18.50
2017-12-23T05:09:55.835Z,19.70
2017-12-23T05:10:55.653Z,18.10
2017-12-23T05:11:56.464Z,19.60
2017-12-23T05:12:55.828Z,19.70
2017-12-23T05:13:55.731Z,20.10
2017-12-23T05:14:55.445Z,19.00
2017-12-23T05:15:55.851Z,20.10
2017-12-23T05:16:56.383Z,19.00
2017-12-23T05:17:55.187Z,19.10
2017-12-23T05:18:56.206Z,20.30
2017-12-23T05:19:56.139Z,17.90
2017-12-23T05:20:56.245Z,17.70
2017-12-23T05:22:18.581Z,17.10
2017-12-23T05:23:18.931Z,14.10
2017-12-23T05:24:19.379Z,16.20
2017-12-23T05:25:19.431Z,14.60
2017-12-23T05:26:19.422Z,13.40
2017-12-23T05:27:20.073Z,14.60
2017-12-23T05:28:19.449Z,14.20
2017-12-23T05:29:19.280Z,13.70
2017-12-23T05:30:19.102Z,13.40
2017-12-23T05:31:18.948Z,13.10
2017-12-23T05:32:42.140Z,13.80
2017-12-23T05:33:41.778Z,12.80
2017-12-23T05:34:42.243Z,13.30
2017-12-23T05:35:42.586Z,11.00
2017-12-23T05:36:41.557Z,12.50
2017-12-23T05:37:41.762Z,12.40
2017-12-23T05:38:41.836Z,12.20
2017-12-23T05:39:41.773Z,12.70
2017-12-23T05:40:41.514Z,11.00
2017-12-23T05:42:04.695Z,12.20
2017-12-23T05:43:05.896Z,11.90
2017-12-23T05:44:04.713Z,11.10
2017-12-23T05:45:05.478Z,10.70
2017-12-23T05:46:05.328Z,11.30
2017-12-23T05:47:05.864Z,10.70
2017-12-23T05:48:05.001Z,11.60
2017-12-23T05:49:27.683Z,11.80
2017-12-23T05:50:27.870Z,11.20
2017-12-23T05:51:27.925Z,11.40
2017-12-23T05:52:28.219Z,11.60
2017-12-23T05:53:49.718Z,11.80
2017-12-23T05:54:51.481Z,11.70
2017-12-23T05:55:50.874Z,12.10
2017-12-23T05:56:51.324Z,11.40
2017-12-23T05:57:50.852Z,12.10
2017-12-23T05:58:51.129Z,11.60
2017-12-23T06:00:11.748Z,12.10
2017-12-23T06:01:11.457Z,11.70
2017-12-23T06:02:12.223Z,12.20
2017-12-23T06:03:12.154Z,11.70
2017-12-23T06:04:12.275Z,12.80
2017-12-23T06:05:13.147Z,12.00
2017-12-23T06:06:12.549Z,12.60
2017-12-23T06:07:11.730Z,10.90
2017-12-23T06:08:11.641Z,12.60
2017-12-23T06:09:11.519Z,12.70
2017-12-23T06:10:12.165Z,13.00
2017-12-23T06:11:12.210Z,12.10
2017-12-23T06:12:12.713Z,12.20
2017-12-23T06:13:12.192Z,12.80
2017-12-23T06:14:11.859Z,11.80
2017-12-23T06:15:12.196Z,12.50
2017-12-23T06:16:34.745Z,11.40
2017-12-23T06:17:35.196Z,10.90
2017-12-23T06:18:35.616Z,10.70
2017-12-23T06:19:35.498Z,9.70
2017-12-23T06:20:35.260Z,9.00
2017-12-23T06:21:35.650Z,8.80
2017-12-23T06:22:35.712Z,9.50
2017-12-23T06:23:35.511Z,9.70
2017-12-23T06:24:35.463Z,10.30
2017-12-23T06:25:35.753Z,10.10
2017-12-23T06:26:36.467Z,10.60
2017-12-23T06:27:35.878Z,10.20
2017-12-23T06:28:35.392Z,10.90
2017-12-23T06:29:35.192Z,10.10
2017-12-23T06:30:35.171Z,10.30
2017-12-23T06:31:35.354Z,10.70
2017-12-23T06:32:35.342Z,10.80
2017-12-23T06:33:35.007Z,10.40
2017-12-23T06:34:34.864Z,11.00
2017-12-23T06:35:36.138Z,10.70
2017-12-23T06:36:35.454Z,10.40
2017-12-23T06:37:36.008Z,10.50
2017-12-23T06:38:35.932Z,10.90
2017-12-23T06:39:35.274Z,10.30
2017-12-23T06:40:35.758Z,11.70
2017-12-23T06:41:35.378Z,11.80
2017-12-23T06:42:36.230Z,10.70
2017-12-23T06:43:35.719Z,11.80
2017-12-23T06:44:35.197Z,11.70
2017-12-23T06:45:35.759Z,12.30
2017-12-23T06:46:34.947Z,13.20
2017-12-23T06:47:34.717Z,13.30
2017-12-23T06:48:36.565Z,11.80
2017-12-23T06:49:35.498Z,12.40
2017-12-23T06:50:57.050Z,14.30
2017-12-23T06:51:58.014Z,12.90
2017-12-23T06:52:58.920Z,13.50
2017-12-23T06:53:58.614Z,12.90
2017-12-23T06:54:57.795Z,12.30
2017-12-23T06:55:57.674Z,15.30
2017-12-23T06:57:19.899Z,14.40
2017-12-23T06:58:21.125Z,15.60
2017-12-23T06:59:21.011Z,14.00
2017-12-23T07:00:43.607Z,15.00
2017-12-23T07:01:43.922Z,14.90
2017-12-23T07:02:43.757Z,15.30
2017-12-23T07:03:43.616Z,15.90
2017-12-23T07:04:44.129Z,15.70
2017-12-23T07:05:43.007Z,15.70
2017-12-23T07:06:43.910Z,14.80
2017-12-23T07:07:43.933Z,15.30
2017-12-23T07:08:44.014Z,17.50
2017-12-23T07:09:44.296Z,17.00
2017-12-23T07:10:43.676Z,17.60
2017-12-23T07:11:43.725Z,18.20
2017-12-23T07:13:06.477Z,18.60
2017-12-23T07:14:06.383Z,19.30
2017-12-23T07:15:06.747Z,16.40
2017-12-23T07:16:06.640Z,17.00
2017-12-23T07:17:06.533Z,19.20
2017-12-23T07:18:06.293Z,19.30
2017-12-23T07:19:06.806Z,19.90
2017-12-23T07:20:07.171Z,19.90
2017-12-23T07:21:06.657Z,19.60
2017-12-23T07:22:06.693Z,18.50
2017-12-23T07:23:06.802Z,19.70
2017-12-23T07:24:06.980Z,19.50
2017-12-23T07:25:07.195Z,20.40
2017-12-23T07:26:06.671Z,20.80
2017-12-23T07:27:07.036Z,20.70
2017-12-23T07:28:06.640Z,19.80
2017-12-23T07:29:07.105Z,19.20
2017-12-23T07:30:05.940Z,21.30
2017-12-23T07:31:07.152Z,22.20
2017-12-23T07:32:05.965Z,21.70
2017-12-23T07:33:06.657Z,20.10
2017-12-23T07:34:06.869Z,21.70
2017-12-23T07:35:07.571Z,22.90
2017-12-23T07:36:07.316Z,23.00
2017-12-23T07:37:29.377Z,24.20
2017-12-23T07:38:29.129Z,22.40
2017-12-23T07:39:29.658Z,23.50
2017-12-23T07:40:29.764Z,24.60
2017-12-23T07:41:30.213Z,24.00
2017-12-23T07:42:29.903Z,25.70
2017-12-23T07:43:28.893Z,23.40
2017-12-23T07:44:29.715Z,24.90
2017-12-23T07:45:29.915Z,25.10
2017-12-23T07:46:29.348Z,25.50
2017-12-23T07:47:30.388Z,27.30
2017-12-23T07:48:29.863Z,20.90
2017-12-23T07:49:30.318Z,22.10
2017-12-23T07:50:29.049Z,23.20
2017-12-23T07:51:53.446Z,23.10
2017-12-23T07:52:54.059Z,22.60
2017-12-23T07:53:54.494Z,20.50
2017-12-23T07:54:53.760Z,21.90
2017-12-23T07:55:53.568Z,22.30
2017-12-23T07:56:53.348Z,22.00
2017-12-23T07:57:54.035Z,20.60
2017-12-23T07:58:53.869Z,20.50
2017-12-23T07:59:54.340Z,20.90
2017-12-23T08:00:54.668Z,17.80
2017-12-23T08:01:54.146Z,19.70
2017-12-23T08:02:55.030Z,18.30
2017-12-23T08:03:54.754Z,18.60
2017-12-23T08:04:54.008Z,18.20
2017-12-23T08:05:54.601Z,17.70
2017-12-23T08:06:54.186Z,18.10
2017-12-23T08:07:54.928Z,15.50
2017-12-23T08:08:53.748Z,15.40
2017-12-23T08:09:54.060Z,14.80
2017-12-23T08:10:54.474Z,14.30
2017-12-23T08:11:53.214Z,14.70
2017-12-23T08:12:53.864Z,11.50
2017-12-23T08:13:54.677Z,11.80
2017-12-23T08:14:53.549Z,11.30
2017-12-23T08:15:54.099Z,9.50
2017-12-23T08:16:54.639Z,10.50
2017-12-23T08:17:54.110Z,11.30
2017-12-23T08:18:54.019Z,10.60
2017-12-23T08:19:54.763Z,11.30
2017-12-23T08:20:54.197Z,12.20
2017-12-23T08:21:53.410Z,12.50
2017-12-23T08:22:53.843Z,12.80
2017-12-23T08:24:16.267Z,13.70
2017-12-23T08:25:16.740Z,13.60
2017-12-23T08:26:16.966Z,13.50
2017-12-23T08:27:16.516Z,14.50
2017-12-23T08:28:16.481Z,13.80
2017-12-23T08:29:16.950Z,13.20
2017-12-23T08:30:17.472Z,15.20
2017-12-23T08:31:18.256Z,16.90
2017-12-23T08:32:16.811Z,17.50
2017-12-23T08:33:17.131Z,16.80
2017-12-23T08:34:16.591Z,16.80
2017-12-23T08:35:38.631Z,16.60
2017-12-23T08:36:39.189Z,18.80
2017-12-23T08:37:39.398Z,18.30
2017-12-23T08:38:39.883Z,18.70
2017-12-23T08:39:38.964Z,17.90
2017-12-23T08:40:39.777Z,18.40
2017-12-23T08:42:01.724Z,20.30
2017-12-23T08:43:01.508Z,19.40
2017-12-23T08:44:01.378Z,20.10
2017-12-23T08:45:01.573Z,17.40
2017-12-23T08:46:02.473Z,19.30
2017-12-23T08:47:01.969Z,18.20
2017-12-23T08:48:01.803Z,19.20
2017-12-23T08:49:02.353Z,20.70
2017-12-23T08:50:01.462Z,21.90
2017-12-23T08:51:01.767Z,22.50
2017-12-23T08:52:02.146Z,21.50
2017-12-23T08:53:02.034Z,22.20
2017-12-23T08:54:02.912Z,22.70
2017-12-23T08:55:02.146Z,22.20
2017-12-23T08:56:03.060Z,21.50
2017-12-23T08:57:01.894Z,22.30
2017-12-23T08:58:01.798Z,22.10
2017-12-23T08:59:02.464Z,19.30
2017-12-23T09:00:01.189Z,22.90
2017-12-23T09:01:02.764Z,19.90
2017-12-23T09:02:02.176Z,21.40
2017-12-23T09:03:02.381Z,24.20
2017-12-23T09:04:01.112Z,22.20
2017-12-23T09:05:02.562Z,24.10
2017-12-23T09:06:01.948Z,24.90
2017-12-23T09:07:02.113Z,25.70
2017-12-23T09:08:01.992Z,26.50
2017-12-23T09:09:01.856Z,23.90
2017-12-23T09:10:02.276Z,25.00
2017-12-23T09:11:01.153Z,24.70
2017-12-23T09:12:04.230Z,27.10
2017-12-23T09:13:01.516Z,24.00
2017-12-23T09:14:01.251Z,25.60
2017-12-23T09:15:24.231Z,26.00
2017-12-23T09:16:25.452Z,22.00
2017-12-23T09:17:25.903Z,26.80
2017-12-23T09:18:25.124Z,28.20
2017-12-23T09:19:24.977Z,28.00
2017-12-23T09:20:25.208Z,21.60
2017-12-23T09:21:25.423Z,27.70
2017-12-23T09:22:24.316Z,28.00
2017-12-23T09:23:25.968Z,27.80
2017-12-23T09:24:25.608Z,26.90
2017-12-23T09:25:25.775Z,28.40
2017-12-23T09:26:25.387Z,29.00
2017-12-23T09:27:24.254Z,25.40
2017-12-23T09:28:26.415Z,32.30
2017-12-23T09:29:25.257Z,29.00
2017-12-23T09:30:25.210Z,29.80
2017-12-23T09:31:25.751Z,29.00
2017-12-23T09:32:25.345Z,29.80
2017-12-23T09:33:25.562Z,25.30
2017-12-23T09:34:25.152Z,31.00
2017-12-23T09:35:26.190Z,32.80
2017-12-23T09:36:26.267Z,32.10
2017-12-23T09:37:24.367Z,27.10
2017-12-23T09:38:25.852Z,30.00
2017-12-23T09:39:25.338Z,30.40
2017-12-23T09:40:25.851Z,35.30
2017-12-23T09:41:24.853Z,31.40
2017-12-23T09:42:25.024Z,30.70
2017-12-23T09:43:25.818Z,34.00
2017-12-23T09:44:25.460Z,33.60
2017-12-23T09:45:24.469Z,32.60
2017-12-23T09:46:24.643Z,34.50
2017-12-23T09:47:27.370Z,35.80
2017-12-23T09:48:25.448Z,34.80
2017-12-23T09:49:27.088Z,36.10
2017-12-23T09:50:34.552Z,34.90
2017-12-23T09:51:42.185Z,35.70
2017-12-23T09:52:48.994Z,35.40
2017-12-23T09:54:13.663Z,37.10
2017-12-23T09:55:01.114Z,35.10
2017-12-23T09:56:00.667Z,32.80
2017-12-23T09:56:59.430Z,35.10
2017-12-23T09:57:54.335Z,33.50
2017-12-23T09:58:55.942Z,39.30
2017-12-23T09:59:53.761Z,35.00
2017-12-23T10:00:54.801Z,39.40
2017-12-23T10:01:53.822Z,36.20
2017-12-23T10:02:53.563Z,37.60
2017-12-23T10:03:54.259Z,38.30
2017-12-23T10:04:55.109Z,37.00
2017-12-23T10:05:54.679Z,36.30
2017-12-23T10:06:56.767Z,37.00
2017-12-23T10:08:02.106Z,37.20
2017-12-23T10:09:02.853Z,38.30
2017-12-23T10:10:12.569Z,38.30
2017-12-23T10:11:18.549Z,36.40
2017-12-23T10:12:16.369Z,37.20
2017-12-23T10:12:54.356Z,41.20
2017-12-23T10:13:53.913Z,41.70
2017-12-23T10:14:56.156Z,40.30
2017-12-23T10:15:55.581Z,37.60
2017-12-23T10:16:54.641Z,39.20
2017-12-23T10:17:54.418Z,37.60
2017-12-23T10:18:55.149Z,40.10
2017-12-23T10:19:54.985Z,34.50
2017-12-23T10:20:54.913Z,35.50
2017-12-23T10:21:55.279Z,41.20
2017-12-23T10:22:54.767Z,41.90
2017-12-23T10:23:55.747Z,38.70
2017-12-23T10:24:55.077Z,39.90
2017-12-23T10:25:55.188Z,40.10
2017-12-23T10:26:54.121Z,38.80
2017-12-23T10:27:54.651Z,40.30
2017-12-23T10:28:54.532Z,41.90
2017-12-23T10:29:54.599Z,42.90
2017-12-23T10:30:54.699Z,38.20
2017-12-23T10:31:56.726Z,42.10
2017-12-23T10:32:56.128Z,40.10
2017-12-23T10:33:54.766Z,42.80
2017-12-23T10:34:55.166Z,40.70
2017-12-23T10:35:54.680Z,37.40
2017-12-23T10:36:54.258Z,43.50
2017-12-23T10:37:54.938Z,43.20
2017-12-23T10:38:54.993Z,40.00
2017-12-23T10:39:54.643Z,34.90
2017-12-23T10:40:54.412Z,31.20
2017-12-23T10:41:54.653Z,41.30
2017-12-23T10:42:54.372Z,43.10
2017-12-23T10:43:54.065Z,43.30
2017-12-23T10:44:55.357Z,44.40
2017-12-23T10:45:54.018Z,43.30
2017-12-23T10:46:55.786Z,36.50
2017-12-23T10:47:54.405Z,33.90
2017-12-23T10:49:19.517Z,42.10
2017-12-23T10:50:19.821Z,43.80
2017-12-23T10:51:19.923Z,44.10
2017-12-23T10:52:42.844Z,33.20
2017-12-23T10:53:44.822Z,37.00
2017-12-23T10:54:44.071Z,34.70
2017-12-23T10:55:58.999Z,43.70
2017-12-23T10:56:53.213Z,36.60
2017-12-23T10:57:43.807Z,42.50
2017-12-23T10:58:56.385Z,38.60
2017-12-23T11:00:09.118Z,43.40
2017-12-23T11:00:56.187Z,45.10
2017-12-23T11:01:44.007Z,42.10
2017-12-23T11:02:42.510Z,41.30
2017-12-23T11:03:42.452Z,41.80
2017-12-23T11:04:44.243Z,42.80
2017-12-23T11:05:43.202Z,38.70
2017-12-23T11:06:43.775Z,43.50
2017-12-23T11:07:43.165Z,39.00
2017-12-23T11:08:45.058Z,42.90
2017-12-23T11:09:43.320Z,45.70
2017-12-23T11:10:43.488Z,42.90
2017-12-23T11:11:45.117Z,43.80
2017-12-23T11:12:42.843Z,38.70
2017-12-23T11:13:42.629Z,40.00
2017-12-23T11:14:45.148Z,37.00
2017-12-23T11:15:43.399Z,44.10
2017-12-23T11:16:44.456Z,44.70
2017-12-23T11:17:43.820Z,43.00
2017-12-23T11:18:43.300Z,42.30
2017-12-23T11:19:45.572Z,42.60
2017-12-23T11:20:43.142Z,42.80
2017-12-23T11:21:44.760Z,43.90
2017-12-23T11:22:43.519Z,42.70
2017-12-23T11:23:44.369Z,39.80
2017-12-23T11:24:44.463Z,40.90
2017-12-23T11:25:44.030Z,40.80
2017-12-23T11:26:43.304Z,37.10
2017-12-23T11:27:43.865Z,32.80
2017-12-23T11:28:42.718Z,37.00
2017-12-23T11:29:42.747Z,37.10
2017-12-23T11:30:43.232Z,39.80
2017-12-23T11:31:43.011Z,40.40
2017-12-23T11:32:43.301Z,39.80
2017-12-23T11:33:43.793Z,34.80
2017-12-23T11:34:42.693Z,37.30
2017-12-23T11:36:05.939Z,34.20
2017-12-23T11:37:07.535Z,39.40
2017-12-23T11:38:06.994Z,39.90
2017-12-23T11:39:16.230Z,34.40
2017-12-23T11:40:34.242Z,32.00
2017-12-23T11:41:30.275Z,36.40
2017-12-23T11:42:07.059Z,38.40
2017-12-23T11:43:06.873Z,35.70
2017-12-23T11:44:06.746Z,35.40
2017-12-23T11:45:08.366Z,38.60
2017-12-23T11:46:06.593Z,38.10
2017-12-23T11:47:06.625Z,35.40
2017-12-23T11:48:06.547Z,39.60
2017-12-23T11:49:06.785Z,39.60
2017-12-23T11:50:36.025Z,36.80
2017-12-23T11:51:36.907Z,34.20
2017-12-23T11:52:35.768Z,38.20
2017-12-23T11:53:35.652Z,39.80
2017-12-23T11:54:35.743Z,37.10
2017-12-23T11:55:36.791Z,36.90
2017-12-23T11:56:37.307Z,34.30
2017-12-23T11:57:36.781Z,36.00
2017-12-23T11:58:38.648Z,36.60
2017-12-23T12:00:20.418Z,35.90
2017-12-23T12:01:21.122Z,36.40
2017-12-23T12:02:20.688Z,37.10
2017-12-23T12:03:21.338Z,34.70
2017-12-23T12:04:20.715Z,35.70
2017-12-23T12:05:21.292Z,35.70
2017-12-23T12:06:21.402Z,35.40
2017-12-23T12:07:20.804Z,30.20
2017-12-23T12:08:21.326Z,31.80
2017-12-23T12:09:20.754Z,30.10
2017-12-23T12:10:20.787Z,30.10
2017-12-23T12:11:21.943Z,26.50
2017-12-23T12:12:20.593Z,26.90
2017-12-23T12:13:42.844Z,28.90
2017-12-23T12:14:43.293Z,34.00
2017-12-23T12:15:43.604Z,31.50
2017-12-23T12:16:43.640Z,33.90
2017-12-23T12:17:43.056Z,33.10
2017-12-23T12:18:43.254Z,23.10
2017-12-23T12:19:44.985Z,23.60
2017-12-23T12:20:43.431Z,29.10
2017-12-23T12:21:44.850Z,30.20
2017-12-23T12:22:42.760Z,29.60
2017-12-23T12:23:42.598Z,31.40
2017-12-23T12:24:43.079Z,29.00
2017-12-23T12:25:42.868Z,29.40
2017-12-23T12:27:05.602Z,29.90
2017-12-23T12:28:05.913Z,24.90
2017-12-23T12:29:05.300Z,25.10
2017-12-23T12:30:05.144Z,27.00
2017-12-23T12:31:05.926Z,25.70
2017-12-23T12:32:05.801Z,27.90
2017-12-23T12:33:06.493Z,28.30
2017-12-23T12:34:06.617Z,22.00
2017-12-23T12:35:06.233Z,27.10
2017-12-23T12:36:10.591Z,25.90
2017-12-23T12:37:05.876Z,29.50
2017-12-23T12:38:18.120Z,24.90
2017-12-23T12:39:06.021Z,22.30
2017-12-23T12:40:05.609Z,23.10
2017-12-23T12:41:05.750Z,26.80
2017-12-23T12:42:05.713Z,24.80
2017-12-23T12:43:06.853Z,26.70
2017-12-23T12:44:05.150Z,24.30
2017-12-23T12:45:05.513Z,22.60
2017-12-23T12:46:06.061Z,25.00
2017-12-23T12:47:07.006Z,15.50
2017-12-23T12:48:07.988Z,17.70
2017-12-23T12:49:06.736Z,21.70
2017-12-23T12:50:09.223Z,21.20
2017-12-23T12:51:05.566Z,23.90
2017-12-23T12:52:07.263Z,24.50
2017-12-23T12:53:08.252Z,24.80
2017-12-23T12:54:06.237Z,24.20
2017-12-23T12:55:07.060Z,22.60
2017-12-23T12:56:08.673Z,18.50
2017-12-23T12:57:07.359Z,23.10
2017-12-23T12:58:31.481Z,22.50
2017-12-23T12:59:31.835Z,22.00
2017-12-23T13:00:31.736Z,21.80
2017-12-23T13:01:31.919Z,22.00
2017-12-23T13:02:33.580Z,25.20
2017-12-23T13:03:31.403Z,24.80
2017-12-23T13:04:32.472Z,21.60
2017-12-23T13:05:31.162Z,23.30
2017-12-23T13:06:32.365Z,22.70
2017-12-23T13:07:32.285Z,21.90